createdAt,value
2022-09-05T00:01:18.802Z,85.70
2022-09-05T00:07:09.149Z,85.77
2022-09-05T00:12:37.257Z,85.95
2022-09-05T00:24:17.332Z,85.97
2022-09-05T00:25:14.392Z,86.20
2022-09-05T00:31:08.562Z,86.43
2022-09-05T00:37:00.441Z,86.61
2022-09-05T00:42:25.020Z,86.71
2022-09-05T00:48:06.587Z,86.93
2022-09-05T00:53:45.115Z,87.03
2022-09-05T00:59:58.892Z,87.14
2022-09-05T01:05:55.860Z,87.37
2022-09-05T01:11:36.748Z,87.60
2022-09-05T01:17:28.777Z,87.80
2022-09-05T01:22:59.155Z,88.18
2022-09-05T01:29:15.632Z,88.17
2022-09-05T01:34:31.223Z,88.49
2022-09-05T01:40:14.903Z,88.72
2022-09-05T01:46:12.276Z,88.85
2022-09-05T01:52:02.309Z,88.98
2022-09-05T01:57:37.243Z,89.20
2022-09-05T02:03:31.796Z,89.28
2022-09-05T02:09:41.033Z,89.16
2022-09-05T02:15:09.978Z,89.40
2022-09-05T02:20:57.740Z,89.50
2022-09-05T02:26:25.091Z,89.62
2022-09-05T02:31:49.086Z,89.86
2022-09-05T02:39:19.969Z,89.97
2022-09-05T02:45:21.698Z,90.14
2022-09-05T02:52:21.283Z,90.39
2022-09-05T02:57:34.885Z,90.32
2022-09-05T03:01:54.140Z,90.45
2022-09-05T03:07:48.891Z,90.73
2022-09-05T03:13:25.674Z,90.64
2022-09-05T03:19:01.473Z,91.15
2022-09-05T03:24:34.820Z,91.31
2022-09-05T03:30:16.962Z,91.49
2022-09-05T03:36:05.208Z,91.88
2022-09-05T03:41:50.180Z,92.00
2022-09-05T03:47:11.812Z,92.17
2022-09-05T03:57:16.679Z,92.28
2022-09-05T03:59:00.361Z,92.30
2022-09-05T04:08:18.450Z,92.61
2022-09-05T04:10:34.619Z,92.57
2022-09-05T04:16:03.964Z,92.68
2022-09-05T04:21:30.336Z,92.61
2022-09-05T04:27:00.988Z,92.56
2022-09-05T04:32:45.992Z,92.59
2022-09-05T04:38:13.014Z,92.21
2022-09-05T04:43:52.412Z,91.98
2022-09-05T04:49:30.968Z,91.70
2022-09-05T04:54:58.010Z,91.42
2022-09-05T05:06:02.648Z,91.33
2022-09-05T05:06:45.412Z,91.06
2022-09-05T05:17:58.392Z,90.70
2022-09-05T05:18:39.729Z,90.27
2022-09-05T05:23:46.742Z,89.62
2022-09-05T05:29:26.148Z,89.15
2022-09-05T05:34:56.903Z,89.11
2022-09-05T05:40:17.971Z,88.82
2022-09-05T05:45:39.127Z,88.75
2022-09-05T05:52:01.825Z,88.54
2022-09-05T05:58:11.719Z,87.89
2022-09-05T06:03:44.640Z,87.79
2022-09-05T06:14:48.231Z,87.75
2022-09-05T06:15:35.460Z,86.78
2022-09-05T06:22:08.747Z,86.04
2022-09-05T06:27:43.874Z,86.14
2022-09-05T06:33:39.180Z,85.99
2022-09-05T06:39:09.767Z,84.87
2022-09-05T06:44:50.905Z,85.05
2022-09-05T06:50:24.434Z,84.24
2022-09-05T06:55:59.515Z,84.51
2022-09-05T07:01:59.910Z,84.22
2022-09-05T07:07:18.466Z,83.52
2022-09-05T07:12:45.463Z,83.15
2022-09-05T07:18:40.864Z,83.39
2022-09-05T07:24:09.831Z,82.83
2022-09-05T07:29:36.921Z,82.44
2022-09-05T07:35:02.122Z,82.17
2022-09-05T07:40:25.865Z,81.87
2022-09-05T07:46:11.909Z,81.34
2022-09-05T07:56:54.789Z,80.42
2022-09-05T07:57:51.396Z,80.38
2022-09-05T08:03:14.182Z,80.30
2022-09-05T08:09:21.922Z,79.92
2022-09-05T08:14:50.440Z,78.97
2022-09-05T08:20:14.443Z,78.65
2022-09-05T08:25:57.330Z,77.75
2022-09-05T08:31:46.236Z,77.00
2022-09-05T08:37:10.913Z,76.91
2022-09-05T08:44:13.567Z,76.23
2022-09-05T08:48:40.497Z,75.54
2022-09-05T08:54:05.468Z,75.40
2022-09-05T09:00:19.897Z,74.58
2022-09-05T09:06:13.947Z,73.68
2022-09-05T09:11:41.388Z,73.56
2022-09-05T09:17:24.004Z,72.35
2022-09-05T09:22:59.928Z,72.50
2022-09-05T09:28:50.187Z,71.84
2022-09-05T09:34:25.773Z,70.33
2022-09-05T09:40:09.813Z,69.80
2022-09-05T09:45:43.192Z,68.95
2022-09-05T09:51:36.665Z,69.27
2022-09-05T09:57:49.005Z,68.27
2022-09-05T10:09:50.584Z,67.51
2022-09-05T10:11:00.720Z,66.78
2022-09-05T10:15:44.568Z,66.49
2022-09-05T10:21:26.721Z,65.17
2022-09-05T10:27:09.445Z,64.48
2022-09-05T10:35:07.572Z,63.90
2022-09-05T10:38:34.435Z,63.85
2022-09-05T10:44:03.471Z,64.16
2022-09-05T10:49:30.318Z,63.51
2022-09-05T10:55:14.665Z,62.57
2022-09-05T11:02:27.526Z,61.71
2022-09-05T11:06:53.424Z,61.67
2022-09-05T11:12:20.621Z,61.28
2022-09-05T11:18:15.953Z,60.59
2022-09-05T11:23:56.945Z,61.00
2022-09-05T11:29:23.341Z,59.37
2022-09-05T11:39:59.004Z,58.39
2022-09-05T11:41:28.981Z,57.45
2022-09-05T11:46:52.129Z,56.91
2022-09-05T11:52:29.967Z,55.76
2022-09-05T11:58:44.531Z,55.08
2022-09-05T12:04:01.094Z,55.10
2022-09-05T12:09:32.272Z,55.13
2022-09-05T12:15:04.353Z,54.84
2022-09-05T12:20:57.615Z,54.77
2022-09-05T12:27:43.669Z,53.90
2022-09-05T12:33:58.271Z,54.03
2022-09-05T12:40:15.765Z,53.37
2022-09-05T12:44:40.354Z,53.28
2022-09-05T12:49:47.410Z,52.84
2022-09-05T12:55:24.443Z,52.65
2022-09-05T13:03:07.649Z,52.33
2022-09-05T13:06:42.575Z,52.27
2022-09-05T13:14:57.071Z,52.37
2022-09-05T13:18:32.525Z,51.88
2022-09-05T13:24:32.539Z,51.78
2022-09-05T13:32:36.122Z,51.26
2022-09-05T13:38:07.747Z,50.21
2022-09-05T13:42:06.346Z,50.26
2022-09-05T13:47:50.000Z,48.68
2022-09-05T13:53:27.864Z,48.75
2022-09-05T13:59:02.328Z,48.73
2022-09-05T14:10:40.695Z,48.53
2022-09-05T14:16:13.515Z,47.97
2022-09-05T14:21:41.231Z,47.86
2022-09-05T14:27:32.458Z,47.64
2022-09-05T14:37:54.127Z,47.04
2022-09-05T14:40:32.410Z,47.36
2022-09-05T14:46:14.008Z,47.08
2022-09-05T14:51:40.552Z,46.67
2022-09-05T15:00:51.024Z,46.68
2022-09-05T15:02:54.499Z,46.50
2022-09-05T15:08:20.315Z,46.26
2022-09-05T15:13:32.450Z,46.70
2022-09-05T15:18:41.284Z,46.67
2022-09-05T15:24:18.163Z,46.71
2022-09-05T15:29:30.713Z,46.75
2022-09-05T15:34:34.302Z,46.99
2022-09-05T15:40:24.008Z,47.04
2022-09-05T15:45:32.133Z,47.16
2022-09-05T15:50:44.457Z,47.11
2022-09-05T15:56:19.169Z,46.79
2022-09-05T16:02:03.039Z,46.91
2022-09-05T16:10:45.239Z,46.94
2022-09-05T16:12:44.563Z,46.83
2022-09-05T16:23:18.356Z,47.01
2022-09-05T16:23:57.015Z,47.15
2022-09-05T16:29:27.174Z,47.34
2022-09-05T16:34:52.962Z,47.46
2022-09-05T16:40:38.170Z,47.78
2022-09-05T16:46:14.874Z,48.12
2022-09-05T16:51:35.632Z,48.43
2022-09-05T16:57:00.729Z,48.83
2022-09-05T17:02:27.619Z,49.32
2022-09-05T17:08:13.081Z,49.83
2022-09-05T17:13:34.242Z,50.01
2022-09-05T17:18:42.350Z,50.24
2022-09-05T17:29:23.618Z,50.48
2022-09-05T17:36:08.699Z,51.22
2022-09-05T17:41:57.685Z,51.87
2022-09-05T17:47:35.950Z,52.18
2022-09-05T17:53:24.922Z,52.71
2022-09-05T17:58:49.494Z,53.10
2022-09-05T18:04:15.784Z,53.50
2022-09-05T18:10:14.557Z,53.81
2022-09-05T18:15:28.510Z,54.17
2022-09-05T18:26:40.442Z,55.05
2022-09-05T18:31:51.613Z,55.49
2022-09-05T18:37:01.086Z,55.95
2022-09-05T18:42:34.727Z,56.48
2022-09-05T18:47:59.205Z,56.73
2022-09-05T18:53:28.607Z,57.04
2022-09-05T18:58:35.814Z,57.26
2022-09-05T19:03:48.525Z,57.56
2022-09-05T19:09:14.199Z,57.70
2022-09-05T19:14:45.400Z,58.02
2022-09-05T19:20:49.640Z,58.30
2022-09-05T19:26:12.519Z,58.56
2022-09-05T19:36:53.409Z,58.72
2022-09-05T19:37:30.511Z,58.95
2022-09-05T19:47:28.368Z,59.18
2022-09-05T19:48:07.509Z,59.35
2022-09-05T19:53:22.580Z,59.54
2022-09-05T19:58:31.303Z,59.66
2022-09-05T20:03:41.038Z,59.75
2022-09-05T20:08:49.365Z,59.77
2022-09-05T20:13:54.388Z,59.94
2022-09-05T20:18:57.748Z,60.01
2022-09-05T20:24:01.097Z,60.16
2022-09-05T20:29:12.210Z,60.19
2022-09-05T20:37:18.522Z,60.28
2022-09-05T20:43:35.703Z,60.39
2022-09-05T20:45:44.743Z,60.36
2022-09-05T20:54:19.758Z,60.48
2022-09-05T20:56:23.366Z,60.50
2022-09-05T21:01:28.446Z,60.52
2022-09-05T21:06:36.668Z,60.59
2022-09-05T21:11:50.753Z,60.79
2022-09-05T21:16:58.619Z,60.80
2022-09-05T21:22:25.247Z,60.72
2022-09-05T21:27:38.221Z,60.79
2022-09-05T21:32:41.979Z,60.65
2022-09-05T21:37:50.285Z,60.56
2022-09-05T21:46:02.586Z,60.65
2022-09-05T21:48:34.981Z,60.50
2022-09-05T21:59:15.053Z,60.42
2022-09-05T21:59:36.534Z,60.13
2022-09-05T22:04:43.021Z,60.01
2022-09-05T22:09:56.580Z,59.84
2022-09-05T22:15:27.565Z,59.71
2022-09-05T22:20:27.917Z,59.56
2022-09-05T22:25:34.632Z,59.47
2022-09-05T22:30:39.914Z,59.36
2022-09-05T22:35:45.027Z,59.29
2022-09-05T22:40:49.498Z,59.03
2022-09-05T22:45:57.533Z,59.04
2022-09-05T22:51:00.989Z,58.92
2022-09-05T22:56:09.145Z,58.94
2022-09-05T23:01:13.430Z,58.80
2022-09-05T23:06:18.357Z,58.79
2022-09-05T23:11:44.546Z,58.65
2022-09-05T23:16:51.285Z,58.66
2022-09-05T23:22:02.473Z,58.54
2022-09-05T23:27:06.161Z,58.49
2022-09-05T23:32:10.317Z,58.38
2022-09-05T23:37:16.128Z,58.31
2022-09-05T23:42:21.777Z,58.22
2022-09-05T23:47:25.521Z,58.28
2022-09-05T23:52:32.009Z,58.28
2022-09-05T23:57:36.644Z,58.37
